sensor_id;sensor_type;location;lat;lon;timestamp;pressure;altitude;pressure_sealevel;temperature;humidity
12781;BME280;6454;43.304;24.344;2023-02-20T00:00:23;100542.31;;;12.21;60.18
12781;BME280;6454;43.304;24.344;2023-02-20T00:02:50;100548.63;;;12.17;60.85
12781;BME280;6454;43.304;24.344;2023-02-20T00:05:18;100540.81;;;12.10;60.99
12781;BME280;6454;43.304;24.344;2023-02-20T00:07:45;100533.69;;;12.14;60.83
12781;BME280;6454;43.304;24.344;2023-02-20T00:10:12;100536.94;;;12.16;60.49
12781;BME280;6454;43.304;24.344;2023-02-20T00:12:39;100544.59;;;12.09;60.69
12781;BME280;6454;43.304;24.344;2023-02-20T00:15:07;100551.34;;;12.17;60.73
12781;BME280;6454;43.304;24.344;2023-02-20T00:17:35;100552.41;;;12.21;60.62
12781;BME280;6454;43.304;24.344;2023-02-20T00:20:04;100546.97;;;12.21;60.29
12781;BME280;6454;43.304;24.344;2023-02-20T00:22:31;100558.75;;;12.11;61.08
12781;BME280;6454;43.304;24.344;2023-02-20T00:24:57;100555.78;;;12.08;60.64
12781;BME280;6454;43.304;24.344;2023-02-20T00:27:24;100556.66;;;12.03;61.16
12781;BME280;6454;43.304;24.344;2023-02-20T00:29:51;100557.50;;;11.99;61.18
12781;BME280;6454;43.304;24.344;2023-02-20T00:32:18;100555.88;;;11.98;61.20
12781;BME280;6454;43.304;24.344;2023-02-20T00:34:44;100557.22;;;12.00;61.18
12781;BME280;6454;43.304;24.344;2023-02-20T00:37:12;100558.34;;;11.94;61.26
12781;BME280;6454;43.304;24.344;2023-02-20T00:39:39;100556.47;;;11.90;61.22
12781;BME280;6454;43.304;24.344;2023-02-20T00:42:06;100555.41;;;11.91;60.92
12781;BME280;6454;43.304;24.344;2023-02-20T00:44:33;100558.69;;;11.88;60.94
12781;BME280;6454;43.304;24.344;2023-02-20T00:46:59;100561.91;;;11.90;60.50
12781;BME280;6454;43.304;24.344;2023-02-20T00:49:26;100554.28;;;11.92;60.99
12781;BME280;6454;43.304;24.344;2023-02-20T00:51:53;100554.03;;;11.93;60.62
12781;BME280;6454;43.304;24.344;2023-02-20T00:54:21;100552.69;;;11.91;60.83
12781;BME280;6454;43.304;24.344;2023-02-20T00:56:48;100555.91;;;11.93;60.91
12781;BME280;6454;43.304;24.344;2023-02-20T00:59:15;100561.91;;;11.90;60.59
12781;BME280;6454;43.304;24.344;2023-02-20T01:01:42;100554.97;;;11.79;61.28
12781;BME280;6454;43.304;24.344;2023-02-20T01:04:08;100559.84;;;11.77;61.03
12781;BME280;6454;43.304;24.344;2023-02-20T01:06:35;100557.13;;;11.77;61.32
12781;BME280;6454;43.304;24.344;2023-02-20T01:09:02;100556.03;;;11.78;61.58
12781;BME280;6454;43.304;24.344;2023-02-20T01:11:30;100556.66;;;11.70;61.82
12781;BME280;6454;43.304;24.344;2023-02-20T01:13:57;100549.59;;;11.69;61.48
12781;BME280;6454;43.304;24.344;2023-02-20T01:16:24;100547.72;;;11.64;61.77
12781;BME280;6454;43.304;24.344;2023-02-20T01:18:51;100549.16;;;11.51;61.90
12781;BME280;6454;43.304;24.344;2023-02-20T01:21:18;100530.47;;;11.40;62.05
12781;BME280;6454;43.304;24.344;2023-02-20T01:23:44;100541.88;;;11.42;62.38
12781;BME280;6454;43.304;24.344;2023-02-20T01:26:11;100526.19;;;11.34;62.53
12781;BME280;6454;43.304;24.344;2023-02-20T01:28:42;100544.91;;;11.35;62.91
12781;BME280;6454;43.304;24.344;2023-02-20T01:31:09;100552.59;;;11.23;63.16
12781;BME280;6454;43.304;24.344;2023-02-20T01:33:39;100557.22;;;11.23;62.93
12781;BME280;6454;43.304;24.344;2023-02-20T01:36:07;100555.28;;;11.28;62.91
12781;BME280;6454;43.304;24.344;2023-02-20T01:38:34;100559.91;;;11.28;62.86
12781;BME280;6454;43.304;24.344;2023-02-20T01:41:01;100570.53;;;11.24;62.75
12781;BME280;6454;43.304;24.344;2023-02-20T01:43:28;100574.81;;;11.30;62.66
12781;BME280;6454;43.304;24.344;2023-02-20T01:48:59;100578.31;;;11.36;62.30
12781;BME280;6454;43.304;24.344;2023-02-20T01:51:30;100588.09;;;11.32;62.51
12781;BME280;6454;43.304;24.344;2023-02-20T01:53:58;100581.97;;;11.16;62.68
12781;BME280;6454;43.304;24.344;2023-02-20T01:56:26;100591.66;;;11.27;62.54
12781;BME280;6454;43.304;24.344;2023-02-20T01:58:53;100574.03;;;11.25;62.60
12781;BME280;6454;43.304;24.344;2023-02-20T02:01:20;100573.00;;;11.16;63.08
12781;BME280;6454;43.304;24.344;2023-02-20T02:03:51;100572.19;;;11.15;63.13
12781;BME280;6454;43.304;24.344;2023-02-20T02:06:21;100590.13;;;11.16;63.01
12781;BME280;6454;43.304;24.344;2023-02-20T02:08:50;100587.97;;;11.13;62.96
12781;BME280;6454;43.304;24.344;2023-02-20T02:11:19;100595.03;;;11.09;63.17
12781;BME280;6454;43.304;24.344;2023-02-20T02:13:48;100592.59;;;11.08;63.03
12781;BME280;6454;43.304;24.344;2023-02-20T02:16:24;100598.84;;;11.08;63.46
12781;BME280;6454;43.304;24.344;2023-02-20T02:18:59;100594.47;;;11.07;63.51
12781;BME280;6454;43.304;24.344;2023-02-20T02:27:53;100571.41;;;11.05;63.92
12781;BME280;6454;43.304;24.344;2023-02-20T02:30:55;100580.41;;;11.00;63.94
12781;BME280;6454;43.304;24.344;2023-02-20T02:36:55;100602.09;;;11.10;63.86
12781;BME280;6454;43.304;24.344;2023-02-20T02:39:32;100587.22;;;10.97;63.78
12781;BME280;6454;43.304;24.344;2023-02-20T02:42:06;100616.78;;;11.09;63.37
12781;BME280;6454;43.304;24.344;2023-02-20T02:44:40;100599.34;;;11.15;63.33
12781;BME280;6454;43.304;24.344;2023-02-20T02:47:12;100616.19;;;11.12;63.26
12781;BME280;6454;43.304;24.344;2023-02-20T02:49:47;100615.09;;;11.13;62.87
12781;BME280;6454;43.304;24.344;2023-02-20T02:52:16;100622.44;;;11.13;63.27
12781;BME280;6454;43.304;24.344;2023-02-20T02:55:03;100614.59;;;11.06;63.27
12781;BME280;6454;43.304;24.344;2023-02-20T02:57:30;100609.47;;;10.94;63.33
12781;BME280;6454;43.304;24.344;2023-02-20T03:00:00;100625.22;;;10.97;63.51
12781;BME280;6454;43.304;24.344;2023-02-20T03:02:30;100623.03;;;10.94;63.64
12781;BME280;6454;43.304;24.344;2023-02-20T03:04:59;100626.91;;;10.83;64.25
12781;BME280;6454;43.304;24.344;2023-02-20T03:07:30;100623.63;;;10.86;63.85
12781;BME280;6454;43.304;24.344;2023-02-20T03:10:02;100621.47;;;10.78;63.90
12781;BME280;6454;43.304;24.344;2023-02-20T03:12:31;100618.22;;;10.81;63.81
12781;BME280;6454;43.304;24.344;2023-02-20T03:15:03;100626.09;;;10.78;64.12
12781;BME280;6454;43.304;24.344;2023-02-20T03:17:54;100625.56;;;10.76;64.14
12781;BME280;6454;43.304;24.344;2023-02-20T03:20:25;100625.03;;;10.79;63.67
12781;BME280;6454;43.304;24.344;2023-02-20T03:22:56;100635.03;;;10.83;63.37
12781;BME280;6454;43.304;24.344;2023-02-20T03:25:25;100630.44;;;10.84;63.32
12781;BME280;6454;43.304;24.344;2023-02-20T03:27:57;100642.38;;;10.78;63.43
12781;BME280;6454;43.304;24.344;2023-02-20T03:30:29;100643.22;;;10.73;63.39
12781;BME280;6454;43.304;24.344;2023-02-20T03:33:02;100660.56;;;10.72;63.35
12781;BME280;6454;43.304;24.344;2023-02-20T03:35:47;100654.91;;;10.64;63.35
12781;BME280;6454;43.304;24.344;2023-02-20T03:38:36;100584.44;;;10.08;63.95
12781;BME280;6454;43.304;24.344;2023-02-20T03:41:23;100671.19;;;10.59;63.69
12781;BME280;6454;43.304;24.344;2023-02-20T03:44:09;100668.47;;;10.59;63.80
12781;BME280;6454;43.304;24.344;2023-02-20T03:46:39;100679.56;;;10.57;63.56
12781;BME280;6454;43.304;24.344;2023-02-20T03:49:10;100677.69;;;10.48;63.49
12781;BME280;6454;43.304;24.344;2023-02-20T03:51:38;100681.22;;;10.38;63.71
12781;BME280;6454;43.304;24.344;2023-02-20T03:54:08;100677.44;;;10.39;64.00
12781;BME280;6454;43.304;24.344;2023-02-20T03:56:38;100685.31;;;10.41;63.92
12781;BME280;6454;43.304;24.344;2023-02-20T03:59:11;100685.59;;;10.39;63.73
12781;BME280;6454;43.304;24.344;2023-02-20T04:01:41;100684.22;;;10.37;63.90
12781;BME280;6454;43.304;24.344;2023-02-20T04:04:15;100696.97;;;10.31;63.98
12781;BME280;6454;43.304;24.344;2023-02-20T04:06:44;100688.53;;;10.17;64.40
12781;BME280;6454;43.304;24.344;2023-02-20T04:09:16;100689.66;;;10.31;63.94
12781;BME280;6454;43.304;24.344;2023-02-20T04:11:48;100657.88;;;9.97;64.13
12781;BME280;6454;43.304;24.344;2023-02-20T04:14:20;100696.94;;;10.11;64.46
12781;BME280;6454;43.304;24.344;2023-02-20T04:16:49;100677.94;;;10.01;64.86
12781;BME280;6454;43.304;24.344;2023-02-20T04:19:17;100685.00;;;10.02;64.96
12781;BME280;6454;43.304;24.344;2023-02-20T04:21:48;100686.59;;;9.88;65.54
12781;BME280;6454;43.304;24.344;2023-02-20T04:24:21;100686.84;;;9.81;65.48
12781;BME280;6454;43.304;24.344;2023-02-20T04:26:49;100685.22;;;9.75;65.96
12781;BME280;6454;43.304;24.344;2023-02-20T04:29:16;100699.00;;;9.68;66.01
12781;BME280;6454;43.304;24.344;2023-02-20T04:31:43;100709.84;;;9.68;66.06
12781;BME280;6454;43.304;24.344;2023-02-20T04:34:10;100701.41;;;9.60;66.03
12781;BME280;6454;43.304;24.344;2023-02-20T04:36:37;100703.59;;;9.58;66.19
12781;BME280;6454;43.304;24.344;2023-02-20T04:39:03;100708.75;;;9.59;65.83
12781;BME280;6454;43.304;24.344;2023-02-20T04:41:32;100714.41;;;9.58;66.28
12781;BME280;6454;43.304;24.344;2023-02-20T04:43:58;100710.34;;;9.55;66.19
12781;BME280;6454;43.304;24.344;2023-02-20T04:46:39;100718.75;;;9.54;66.21
12781;BME280;6454;43.304;24.344;2023-02-20T04:49:06;100720.69;;;9.63;65.94
12781;BME280;6454;43.304;24.344;2023-02-20T04:51:32;100712.28;;;9.65;65.89
12781;BME280;6454;43.304;24.344;2023-02-20T04:53:59;100710.09;;;9.52;66.39
12781;BME280;6454;43.304;24.344;2023-02-20T04:56:26;100707.88;;;9.44;66.74
12781;BME280;6454;43.304;24.344;2023-02-20T04:58:55;100716.81;;;9.44;66.90
12781;BME280;6454;43.304;24.344;2023-02-20T05:01:21;100710.06;;;9.47;66.78
12781;BME280;6454;43.304;24.344;2023-02-20T05:03:48;100720.56;;;9.38;67.07
12781;BME280;6454;43.304;24.344;2023-02-20T05:06:15;100721.91;;;9.31;67.23
12781;BME280;6454;43.304;24.344;2023-02-20T05:08:41;100733.22;;;9.23;67.44
12781;BME280;6454;43.304;24.344;2023-02-20T05:11:08;100733.78;;;9.20;67.91
12781;BME280;6454;43.304;24.344;2023-02-20T05:13:35;100739.41;;;9.13;68.35
12781;BME280;6454;43.304;24.344;2023-02-20T05:16:04;100743.41;;;9.05;68.76
12781;BME280;6454;43.304;24.344;2023-02-20T05:18:30;100747.72;;;9.01;68.53
12781;BME280;6454;43.304;24.344;2023-02-20T05:20:57;100752.63;;;9.04;68.54
12781;BME280;6454;43.304;24.344;2023-02-20T05:23:47;100764.28;;;9.10;68.39
12781;BME280;6454;43.304;24.344;2023-02-20T05:26:17;100774.56;;;9.08;68.27
12781;BME280;6454;43.304;24.344;2023-02-20T05:28:45;100780.28;;;9.12;68.27
12781;BME280;6454;43.304;24.344;2023-02-20T05:31:13;100787.03;;;9.09;68.57
12781;BME280;6454;43.304;24.344;2023-02-20T05:33:40;100796.47;;;9.06;68.97
12781;BME280;6454;43.304;24.344;2023-02-20T05:36:07;100792.94;;;9.06;68.97
12781;BME280;6454;43.304;24.344;2023-02-20T05:38:34;100805.16;;;9.08;68.93
12781;BME280;6454;43.304;24.344;2023-02-20T05:41:01;100812.19;;;9.10;69.09
12781;BME280;6454;43.304;24.344;2023-02-20T05:43:27;100823.06;;;9.15;69.05
12781;BME280;6454;43.304;24.344;2023-02-20T05:45:54;100821.69;;;9.12;69.44
12781;BME280;6454;43.304;24.344;2023-02-20T05:48:22;100827.94;;;9.18;69.10
12781;BME280;6454;43.304;24.344;2023-02-20T05:50:49;100830.63;;;9.18;68.24
12781;BME280;6454;43.304;24.344;2023-02-20T05:53:18;100827.94;;;9.18;68.39
12781;BME280;6454;43.304;24.344;2023-02-20T05:55:45;100840.41;;;9.19;68.49
12781;BME280;6454;43.304;24.344;2023-02-20T05:58:11;100837.72;;;9.24;67.98
12781;BME280;6454;43.304;24.344;2023-02-20T06:00:38;100843.44;;;9.27;67.40
12781;BME280;6454;43.304;24.344;2023-02-20T06:03:05;100850.47;;;9.28;67.34
12781;BME280;6454;43.304;24.344;2023-02-20T06:05:34;100857.25;;;9.31;67.37
12781;BME280;6454;43.304;24.344;2023-02-20T06:08:00;100861.66;;;9.37;66.94
12781;BME280;6454;43.304;24.344;2023-02-20T06:10:27;100860.56;;;9.38;66.66
12781;BME280;6454;43.304;24.344;2023-02-20T06:12:54;100868.44;;;9.39;65.67
12781;BME280;6454;43.304;24.344;2023-02-20T06:15:21;100876.34;;;9.51;65.20
12781;BME280;6454;43.304;24.344;2023-02-20T06:17:47;100867.66;;;9.44;64.37
12781;BME280;6454;43.304;24.344;2023-02-20T06:20:14;100885.03;;;9.53;63.43
12781;BME280;6454;43.304;24.344;2023-02-20T06:22:43;100894.31;;;9.62;62.61
12781;BME280;6454;43.304;24.344;2023-02-20T06:25:10;100884.06;;;9.69;62.01
12781;BME280;6454;43.304;24.344;2023-02-20T06:27:37;100893.25;;;9.68;61.68
12781;BME280;6454;43.304;24.344;2023-02-20T06:30:05;100907.09;;;9.71;61.25
12781;BME280;6454;43.304;24.344;2023-02-20T06:32:31;100871.25;;;9.54;61.11
12781;BME280;6454;43.304;24.344;2023-02-20T06:34:58;100903.31;;;9.78;59.38
12781;BME280;6454;43.304;24.344;2023-02-20T06:37:25;100889.00;;;9.82;59.80
12781;BME280;6454;43.304;24.344;2023-02-20T06:39:53;100889.00;;;9.87;59.76
12781;BME280;6454;43.304;24.344;2023-02-20T06:42:20;100893.34;;;9.88;58.55
12781;BME280;6454;43.304;24.344;2023-02-20T06:44:47;100907.44;;;9.90;58.17
12781;BME280;6454;43.304;24.344;2023-02-20T06:47:14;100913.41;;;9.92;58.28
12781;BME280;6454;43.304;24.344;2023-02-20T06:49:41;100894.44;;;9.87;58.48
12781;BME280;6454;43.304;24.344;2023-02-20T06:52:08;100898.25;;;9.91;57.10
12781;BME280;6454;43.304;24.344;2023-02-20T06:54:35;100905.88;;;9.94;56.82
12781;BME280;6454;43.304;24.344;2023-02-20T06:57:04;100911.84;;;9.96;56.13
12781;BME280;6454;43.304;24.344;2023-02-20T06:59:31;100924.88;;;9.99;56.88
12781;BME280;6454;43.304;24.344;2023-02-20T07:02:04;100921.91;;;10.06;56.68
12781;BME280;6454;43.304;24.344;2023-02-20T07:04:31;100918.13;;;10.07;56.70
12781;BME280;6454;43.304;24.344;2023-02-20T07:06:58;100940.97;;;10.16;55.23
12781;BME280;6454;43.304;24.344;2023-02-20T07:09:25;100928.25;;;10.21;55.16
12781;BME280;6454;43.304;24.344;2023-02-20T07:11:52;100949.44;;;10.29;54.78
12781;BME280;6454;43.304;24.344;2023-02-20T07:14:21;100940.47;;;10.24;53.79
12781;BME280;6454;43.304;24.344;2023-02-20T07:16:49;100951.84;;;10.26;53.86
12781;BME280;6454;43.304;24.344;2023-02-20T07:19:15;100956.22;;;10.27;53.00
12781;BME280;6454;43.304;24.344;2023-02-20T07:21:44;100962.41;;;10.27;52.64
12781;BME280;6454;43.304;24.344;2023-02-20T07:24:11;100959.16;;;10.25;53.70
12781;BME280;6454;43.304;24.344;2023-02-20T07:26:38;100956.72;;;10.24;52.57
12781;BME280;6454;43.304;24.344;2023-02-20T07:29:05;100948.34;;;10.30;53.03
12781;BME280;6454;43.304;24.344;2023-02-20T07:31:33;100950.81;;;10.32;53.13
12781;BME280;6454;43.304;24.344;2023-02-20T07:34:00;100952.44;;;10.38;52.56
12781;BME280;6454;43.304;24.344;2023-02-20T07:36:27;100968.47;;;10.45;52.01
12781;BME280;6454;43.304;24.344;2023-02-20T07:38:54;100984.78;;;10.55;51.74
12781;BME280;6454;43.304;24.344;2023-02-20T07:41:22;100957.69;;;10.65;52.00
12781;BME280;6454;43.304;24.344;2023-02-20T07:43:48;100973.19;;;10.74;50.74
12781;BME280;6454;43.304;24.344;2023-02-20T07:46:15;100979.41;;;10.70;50.60
12781;BME280;6454;43.304;24.344;2023-02-20T07:48:44;100986.72;;;10.64;49.34
12781;BME280;6454;43.304;24.344;2023-02-20T07:51:10;100999.19;;;10.65;49.12
12781;BME280;6454;43.304;24.344;2023-02-20T07:53:37;100989.44;;;10.64;48.29
12781;BME280;6454;43.304;24.344;2023-02-20T07:56:04;100985.63;;;10.65;48.84
12781;BME280;6454;43.304;24.344;2023-02-20T07:58:31;100984.56;;;10.71;48.53
12781;BME280;6454;43.304;24.344;2023-02-20T08:00:58;100987.28;;;10.71;48.11
12781;BME280;6454;43.304;24.344;2023-02-20T08:03:25;100987.03;;;10.83;48.18
12781;BME280;6454;43.304;24.344;2023-02-20T08:05:53;100992.22;;;10.89;46.70
12781;BME280;6454;43.304;24.344;2023-02-20T08:08:20;100988.94;;;10.87;45.70
12781;BME280;6454;43.304;24.344;2023-02-20T08:10:49;100999.81;;;10.92;46.51
12781;BME280;6454;43.304;24.344;2023-02-20T08:13:16;101000.38;;;11.05;46.40
12781;BME280;6454;43.304;24.344;2023-02-20T08:15:43;101002.31;;;11.14;44.74
12781;BME280;6454;43.304;24.344;2023-02-20T08:18:10;101013.16;;;11.04;43.88
12781;BME280;6454;43.304;24.344;2023-02-20T08:20:37;101009.88;;;11.07;43.64
12781;BME280;6454;43.304;24.344;2023-02-20T08:23:15;101021.88;;;11.11;42.78
12781;BME280;6454;43.304;24.344;2023-02-20T08:25:41;101037.63;;;11.14;43.29
12781;BME280;6454;43.304;24.344;2023-02-20T08:28:09;101015.31;;;11.07;42.65
12781;BME280;6454;43.304;24.344;2023-02-20T08:30:35;101021.88;;;11.16;43.47
12781;BME280;6454;43.304;24.344;2023-02-20T08:33:02;101021.34;;;11.14;42.86
12781;BME280;6454;43.304;24.344;2023-02-20T08:35:30;101025.66;;;11.10;42.45
12781;BME280;6454;43.304;24.344;2023-02-20T08:37:59;101032.97;;;11.05;41.87
12781;BME280;6454;43.304;24.344;2023-02-20T08:40:27;101036.78;;;11.09;42.58
12781;BME280;6454;43.304;24.344;2023-02-20T08:42:54;101032.41;;;10.97;41.19
12781;BME280;6454;43.304;24.344;2023-02-20T08:45:21;101025.41;;;11.07;42.63
12781;BME280;6454;43.304;24.344;2023-02-20T08:47:48;101043.28;;;11.08;40.71
12781;BME280;6454;43.304;24.344;2023-02-20T08:52:43;101044.66;;;11.10;42.23
12781;BME280;6454;43.304;24.344;2023-02-20T08:55:10;101017.28;;;11.17;42.42
12781;BME280;6454;43.304;24.344;2023-02-20T08:57:41;101025.69;;;11.20;41.01
12781;BME280;6454;43.304;24.344;2023-02-20T09:00:09;101028.13;;;11.22;41.23
12781;BME280;6454;43.304;24.344;2023-02-20T09:02:36;101031.09;;;11.20;40.49
12781;BME280;6454;43.304;24.344;2023-02-20T09:05:03;101024.59;;;11.16;41.45
12781;BME280;6454;43.304;24.344;2023-02-20T09:07:30;101025.97;;;11.24;41.87
12781;BME280;6454;43.304;24.344;2023-02-20T09:09:57;101032.19;;;11.34;41.27
12781;BME280;6454;43.304;24.344;2023-02-20T09:12:23;101051.78;;;11.41;40.51
12781;BME280;6454;43.304;24.344;2023-02-20T09:14:52;101045.25;;;11.32;39.80
12781;BME280;6454;43.304;24.344;2023-02-20T09:17:18;101030.31;;;11.40;41.53
12781;BME280;6454;43.304;24.344;2023-02-20T09:19:45;101045.28;;;11.52;40.61
12781;BME280;6454;43.304;24.344;2023-02-20T09:22:12;101044.19;;;11.53;40.82
12781;BME280;6454;43.304;24.344;2023-02-20T09:24:40;101055.94;;;11.69;40.67
12781;BME280;6454;43.304;24.344;2023-02-20T09:27:07;101062.16;;;11.75;40.62
12781;BME280;6454;43.304;24.344;2023-02-20T09:29:34;101068.94;;;11.72;40.23
12781;BME280;6454;43.304;24.344;2023-02-20T09:32:06;101069.75;;;11.68;40.47
12781;BME280;6454;43.304;24.344;2023-02-20T09:34:33;101061.63;;;11.73;41.39
12781;BME280;6454;43.304;24.344;2023-02-20T09:37:00;101053.75;;;11.71;41.89
12781;BME280;6454;43.304;24.344;2023-02-20T09:39:27;101056.19;;;11.73;41.12
12781;BME280;6454;43.304;24.344;2023-02-20T09:42:04;101063.81;;;11.81;40.80
12781;BME280;6454;43.304;24.344;2023-02-20T09:44:38;101053.47;;;11.98;41.60
12781;BME280;6454;43.304;24.344;2023-02-20T09:47:25;101073.31;;;12.03;40.69
12781;BME280;6454;43.304;24.344;2023-02-20T09:49:56;101079.28;;;11.95;39.38
12781;BME280;6454;43.304;24.344;2023-02-20T09:52:25;101075.50;;;12.01;40.03
12781;BME280;6454;43.304;24.344;2023-02-20T09:54:59;101077.09;;;12.02;39.59
12781;BME280;6454;43.304;24.344;2023-02-20T09:57:28;101075.75;;;12.00;39.17
12781;BME280;6454;43.304;24.344;2023-02-20T10:00:00;101068.41;;;12.05;38.80
12781;BME280;6454;43.304;24.344;2023-02-20T10:02:31;101076.28;;;12.02;39.25
12781;BME280;6454;43.304;24.344;2023-02-20T10:05:02;101050.19;;;12.01;39.16
12781;BME280;6454;43.304;24.344;2023-02-20T10:07:33;101033.34;;;11.94;39.66
12781;BME280;6454;43.304;24.344;2023-02-20T10:10:18;101048.00;;;12.18;38.83
12781;BME280;6454;43.304;24.344;2023-02-20T10:12:55;101049.66;;;12.09;38.22
12781;BME280;6454;43.304;24.344;2023-02-20T10:15:31;101039.28;;;12.21;38.63
12781;BME280;6454;43.304;24.344;2023-02-20T10:18:10;101051.53;;;12.23;37.57
12781;BME280;6454;43.304;24.344;2023-02-20T10:20:51;101038.16;;;12.27;38.11
12781;BME280;6454;43.304;24.344;2023-02-20T10:23:28;101029.16;;;12.32;38.48
12781;BME280;6454;43.304;24.344;2023-02-20T10:26:02;101039.78;;;12.33;37.56
12781;BME280;6454;43.304;24.344;2023-02-20T10:28:30;101038.16;;;12.27;37.56
12781;BME280;6454;43.304;24.344;2023-02-20T10:30:58;101020.22;;;12.31;37.87
12781;BME280;6454;43.304;24.344;2023-02-20T10:33:32;101031.31;;;12.45;38.17
12781;BME280;6454;43.304;24.344;2023-02-20T10:36:08;101031.81;;;12.52;37.93
12781;BME280;6454;43.304;24.344;2023-02-20T10:38:41;101036.44;;;12.61;38.41
12781;BME280;6454;43.304;24.344;2023-02-20T10:41:15;101018.19;;;12.57;37.50
12781;BME280;6454;43.304;24.344;2023-02-20T10:43:49;101018.22;;;12.52;38.13
12781;BME280;6454;43.304;24.344;2023-02-20T10:46:25;101018.19;;;12.62;37.90
12781;BME280;6454;43.304;24.344;2023-02-20T10:48:58;101015.16;;;12.73;37.52
12781;BME280;6454;43.304;24.344;2023-02-20T10:51:30;101023.31;;;12.78;37.70
12781;BME280;6454;43.304;24.344;2023-02-20T10:54:00;101019.75;;;12.78;37.12
12781;BME280;6454;43.304;24.344;2023-02-20T10:56:34;101037.41;;;12.90;38.23
12781;BME280;6454;43.304;24.344;2023-02-20T10:59:07;101021.06;;;12.90;37.81
12781;BME280;6454;43.304;24.344;2023-02-20T11:01:36;101023.31;;;12.78;37.78
12781;BME280;6454;43.304;24.344;2023-02-20T11:04:09;100989.66;;;12.49;37.82
12781;BME280;6454;43.304;24.344;2023-02-20T11:06:40;101035.00;;;12.74;37.65
12781;BME280;6454;43.304;24.344;2023-02-20T11:09:08;101032.56;;;12.72;37.40
12781;BME280;6454;43.304;24.344;2023-02-20T11:11:37;101033.88;;;12.85;36.33
12781;BME280;6454;43.304;24.344;2023-02-20T11:14:11;101035.22;;;12.87;36.89
12781;BME280;6454;43.304;24.344;2023-02-20T11:16:44;101035.72;;;12.94;36.80
12781;BME280;6454;43.304;24.344;2023-02-20T11:19:20;101023.25;;;12.88;36.09
12781;BME280;6454;43.304;24.344;2023-02-20T11:21:48;101028.94;;;12.92;36.64
12781;BME280;6454;43.304;24.344;2023-02-20T11:24:33;101018.31;;;12.96;36.20
12781;BME280;6454;43.304;24.344;2023-02-20T11:27:09;100994.97;;;12.74;37.14
12781;BME280;6454;43.304;24.344;2023-02-20T11:29:40;101024.84;;;12.94;37.60
12781;BME280;6454;43.304;24.344;2023-02-20T11:32:30;101031.06;;;13.00;37.27
12781;BME280;6454;43.304;24.344;2023-02-20T11:35:24;101029.47;;;12.89;37.21
12781;BME280;6454;43.304;24.344;2023-02-20T11:38:16;101025.91;;;12.99;36.91
12781;BME280;6454;43.304;24.344;2023-02-20T11:40:46;101023.47;;;12.97;37.52
12781;BME280;6454;43.304;24.344;2023-02-20T11:43:18;101017.44;;;13.05;37.54
12781;BME280;6454;43.304;24.344;2023-02-20T11:45:46;100996.47;;;13.11;37.80
12781;BME280;6454;43.304;24.344;2023-02-20T11:48:15;101004.59;;;13.16;37.32
12781;BME280;6454;43.304;24.344;2023-02-20T11:50:46;100995.56;;;13.20;36.94
12781;BME280;6454;43.304;24.344;2023-02-20T11:53:19;101001.84;;;13.21;37.13
12781;BME280;6454;43.304;24.344;2023-02-20T11:55:47;100990.94;;;13.21;36.40
12781;BME280;6454;43.304;24.344;2023-02-20T11:58:25;100986.06;;;13.18;36.56
12781;BME280;6454;43.304;24.344;2023-02-20T12:00:54;100988.25;;;13.16;36.38
12781;BME280;6454;43.304;24.344;2023-02-20T12:03:23;100971.34;;;13.14;35.14
12781;BME280;6454;43.304;24.344;2023-02-20T12:05:51;100976.31;;;13.07;35.96
12781;BME280;6454;43.304;24.344;2023-02-20T12:08:35;100974.59;;;13.21;36.49
12781;BME280;6454;43.304;24.344;2023-02-20T12:11:10;100985.50;;;13.21;35.08
12781;BME280;6454;43.304;24.344;2023-02-20T12:13:39;100981.13;;;13.20;35.72
12781;BME280;6454;43.304;24.344;2023-02-20T12:16:25;100998.56;;;13.19;35.81
12781;BME280;6454;43.304;24.344;2023-02-20T12:19:01;100977.13;;;13.02;36.00
12781;BME280;6454;43.304;24.344;2023-02-20T12:21:43;100975.22;;;13.08;35.78
12781;BME280;6454;43.304;24.344;2023-02-20T12:27:01;100983.91;;;13.05;34.24
12781;BME280;6454;43.304;24.344;2023-02-20T12:29:44;100972.50;;;13.08;35.07
12781;BME280;6454;43.304;24.344;2023-02-20T12:32:20;100986.13;;;13.08;35.07
12781;BME280;6454;43.304;24.344;2023-02-20T12:35:03;100969.25;;;13.01;35.33
12781;BME280;6454;43.304;24.344;2023-02-20T12:37:40;100970.06;;;13.06;35.61
12781;BME280;6454;43.304;24.344;2023-02-20T12:40:26;100964.88;;;13.00;35.89
12781;BME280;6454;43.304;24.344;2023-02-20T12:42:58;100960.53;;;13.09;36.14
12781;BME280;6454;43.304;24.344;2023-02-20T12:45:32;100965.44;;;12.97;36.09
12781;BME280;6454;43.304;24.344;2023-02-20T12:48:28;100964.91;;;12.94;36.59
12781;BME280;6454;43.304;24.344;2023-02-20T12:51:11;100967.44;;;12.86;36.39
12781;BME280;6454;43.304;24.344;2023-02-20T12:54:06;100959.53;;;12.84;35.70
12781;BME280;6454;43.304;24.344;2023-02-20T12:56:46;100955.22;;;12.78;36.02
12781;BME280;6454;43.304;24.344;2023-02-20T12:59:24;100954.09;;;12.84;36.83
12781;BME280;6454;43.304;24.344;2023-02-20T13:01:53;100951.31;;;12.94;35.01
12781;BME280;6454;43.304;24.344;2023-02-20T13:04:24;100952.91;;;13.01;35.72
12781;BME280;6454;43.304;24.344;2023-02-20T13:06:58;100960.56;;;12.99;35.99
12781;BME280;6454;43.304;24.344;2023-02-20T13:09:32;100968.13;;;13.07;35.84
12781;BME280;6454;43.304;24.344;2023-02-20T13:12:04;100970.84;;;13.07;35.44
12781;BME280;6454;43.304;24.344;2023-02-20T13:14:47;100967.59;;;13.00;35.55
12781;BME280;6454;43.304;24.344;2023-02-20T13:17:27;100977.97;;;12.98;35.62
12781;BME280;6454;43.304;24.344;2023-02-20T13:19:59;100968.50;;;12.90;35.49
12781;BME280;6454;43.304;24.344;2023-02-20T13:22:31;100974.50;;;12.87;35.46
12781;BME280;6454;43.304;24.344;2023-02-20T13:28:01;100972.00;;;12.96;36.06
12781;BME280;6454;43.304;24.344;2023-02-20T13:30:28;100964.06;;;12.99;35.84